createdAt,value
2019-04-06T00:02:38.500Z,5.30
2019-04-06T00:05:08.671Z,5.30
2019-04-06T00:07:37.428Z,5.20
2019-04-06T00:10:07.310Z,5.20
2019-04-06T00:12:36.184Z,5.20
2019-04-06T00:15:06.734Z,5.30
2019-04-06T00:17:35.599Z,5.30
2019-04-06T00:20:06.094Z,5.30
2019-04-06T00:22:34.861Z,5.40
2019-04-06T00:25:04.339Z,5.30
2019-04-06T00:27:33.119Z,5.30
2019-04-06T00:30:01.873Z,5.30
2019-04-06T00:32:48.890Z,5.30
2019-04-06T00:35:17.714Z,5.30
2019-04-06T00:37:46.507Z,5.40
2019-04-06T00:40:15.502Z,5.20
2019-04-06T00:42:45.365Z,5.30
2019-04-06T00:45:14.407Z,5.30
2019-04-06T00:47:43.180Z,5.40
2019-04-06T00:50:12.324Z,5.40
2019-04-06T00:52:41.075Z,5.40
2019-04-06T00:55:10.025Z,5.40
2019-04-06T00:57:38.763Z,5.40
2019-04-06T01:00:10.940Z,5.40
2019-04-06T01:02:41.680Z,5.40
2019-04-06T01:05:10.738Z,5.50
2019-04-06T01:07:39.486Z,5.50
2019-04-06T01:10:08.787Z,5.50
2019-04-06T01:12:39.399Z,5.50
2019-04-06T01:15:08.268Z,5.50
2019-04-06T01:17:37.130Z,5.60
2019-04-06T01:20:06.760Z,5.60
2019-04-06T01:22:35.506Z,5.60
2019-04-06T01:25:06.819Z,5.60
2019-04-06T01:27:35.662Z,5.60
2019-04-06T01:30:07.993Z,5.70
2019-04-06T01:32:36.745Z,5.60
2019-04-06T01:35:06.390Z,5.50
2019-04-06T01:37:35.271Z,5.50
2019-04-06T01:40:05.953Z,5.50
2019-04-06T01:42:34.835Z,5.60
2019-04-06T01:45:04.560Z,5.70
2019-04-06T01:47:33.332Z,5.70
2019-04-06T01:50:02.230Z,5.70
2019-04-06T01:52:32.906Z,5.70
2019-04-06T01:55:01.619Z,5.60
2019-04-06T01:57:30.366Z,5.70
2019-04-06T02:00:00.229Z,5.60
2019-04-06T02:02:33.647Z,5.60
2019-04-06T02:05:02.499Z,5.60
2019-04-06T02:07:31.454Z,5.60
2019-04-06T02:10:00.331Z,5.70
2019-04-06T02:12:29.167Z,5.60
2019-04-06T02:14:57.918Z,5.70
2019-04-06T02:17:26.730Z,5.70
2019-04-06T02:19:55.479Z,5.70
2019-04-06T02:22:24.209Z,5.70
2019-04-06T02:24:52.933Z,5.70
2019-04-06T02:27:21.701Z,5.70
2019-04-06T02:29:52.064Z,5.70
2019-04-06T02:32:28.799Z,5.70
2019-04-06T02:34:59.158Z,5.80
2019-04-06T02:37:45.867Z,5.90
2019-04-06T02:40:22.005Z,5.80
2019-04-06T02:42:52.392Z,5.90
2019-04-06T02:45:21.189Z,5.80
2019-04-06T02:47:50.156Z,5.80
2019-04-06T02:50:19.009Z,5.90
2019-04-06T02:52:48.035Z,5.80
2019-04-06T02:55:16.772Z,5.80
2019-04-06T02:57:45.523Z,5.80
2019-04-06T03:00:14.746Z,5.80
2019-04-06T03:02:43.600Z,5.80
2019-04-06T03:05:12.568Z,5.80
2019-04-06T03:07:41.336Z,5.80
2019-04-06T03:10:10.223Z,5.90
2019-04-06T03:12:39.147Z,5.90
2019-04-06T03:15:08.384Z,5.80
2019-04-06T03:17:37.200Z,5.80
2019-04-06T03:20:06.899Z,5.80
2019-04-06T03:22:35.849Z,5.90
2019-04-06T03:25:06.136Z,5.90
2019-04-06T03:27:34.889Z,5.90
2019-04-06T03:30:05.098Z,5.90
2019-04-06T03:32:33.820Z,6.00
2019-04-06T03:35:02.621Z,6.00
2019-04-06T03:37:31.741Z,6.00
2019-04-06T03:40:00.559Z,6.10
2019-04-06T03:42:29.319Z,6.10
2019-04-06T03:44:58.052Z,6.10
2019-04-06T03:47:26.830Z,6.10
2019-04-06T03:49:55.708Z,6.10
2019-04-06T03:52:24.864Z,6.10
2019-04-06T03:54:53.774Z,6.10
2019-04-06T03:57:22.545Z,6.20
2019-04-06T03:59:51.350Z,6.20
2019-04-06T04:02:20.102Z,6.20
2019-04-06T04:04:48.842Z,6.30
2019-04-06T04:07:17.685Z,6.30
2019-04-06T04:09:46.726Z,6.30
2019-04-06T04:12:15.539Z,6.30
2019-04-06T04:14:44.267Z,6.40
2019-04-06T04:17:13.025Z,6.40
2019-04-06T04:19:41.747Z,6.40
2019-04-06T04:22:10.474Z,6.40
2019-04-06T04:24:39.305Z,6.40
2019-04-06T04:27:08.355Z,6.50
2019-04-06T04:29:37.092Z,6.50
2019-04-06T04:32:05.887Z,6.50
2019-04-06T04:34:34.599Z,6.50
2019-04-06T04:37:03.433Z,6.50
2019-04-06T04:39:32.163Z,6.50
2019-04-06T04:42:02.739Z,6.50
2019-04-06T04:44:31.452Z,6.50
2019-04-06T04:47:00.247Z,6.60
2019-04-06T04:49:29.021Z,6.50
2019-04-06T04:51:57.751Z,6.50
2019-04-06T04:54:26.493Z,6.60
2019-04-06T04:56:55.322Z,6.60
2019-04-06T04:59:24.221Z,6.60
2019-04-06T05:01:53.026Z,6.60
2019-04-06T05:04:21.927Z,6.60
2019-04-06T05:06:50.724Z,6.60
2019-04-06T05:09:19.502Z,6.70
2019-04-06T05:11:49.123Z,6.70
2019-04-06T05:14:54.249Z,6.70
2019-04-06T05:17:23.066Z,6.70
2019-04-06T05:19:51.793Z,6.70
2019-04-06T05:22:20.536Z,6.70
2019-04-06T05:24:49.302Z,6.70
2019-04-06T05:27:18.218Z,6.70
2019-04-06T05:29:47.006Z,6.70
2019-04-06T05:32:16.586Z,6.80
2019-04-06T05:34:45.361Z,6.80
2019-04-06T05:37:14.089Z,6.80
2019-04-06T05:39:42.841Z,6.80
2019-04-06T05:42:11.749Z,6.90
2019-04-06T05:44:40.606Z,6.90
2019-04-06T05:47:09.361Z,6.90
2019-04-06T05:49:38.162Z,6.90
2019-04-06T05:52:07.165Z,6.90
2019-04-06T05:54:35.915Z,7.00
2019-04-06T05:57:04.911Z,7.00
2019-04-06T05:59:33.939Z,7.00
2019-04-06T06:02:02.825Z,7.00
2019-04-06T06:04:31.521Z,7.00
2019-04-06T06:07:00.246Z,7.10
2019-04-06T06:09:29.041Z,7.10
2019-04-06T06:11:57.730Z,7.10
2019-04-06T06:14:26.490Z,7.10
2019-04-06T06:16:55.304Z,7.20
2019-04-06T06:19:24.035Z,7.20
2019-04-06T06:21:52.906Z,7.20
2019-04-06T06:24:21.788Z,7.20
2019-04-06T06:26:50.521Z,7.20
2019-04-06T06:29:19.245Z,7.20
2019-04-06T06:31:47.997Z,7.30
2019-04-06T06:34:16.789Z,7.30
2019-04-06T06:36:45.522Z,7.30
2019-04-06T06:39:14.282Z,7.40
2019-04-06T06:41:43.187Z,7.40
2019-04-06T06:44:11.937Z,7.40
2019-04-06T06:46:40.695Z,7.40
2019-04-06T06:49:09.433Z,7.40
2019-04-06T06:51:38.190Z,7.40
2019-04-06T06:54:07.521Z,7.40
2019-04-06T06:56:36.537Z,7.40
2019-04-06T06:59:05.322Z,7.50
2019-04-06T07:01:34.212Z,7.50
2019-04-06T07:04:02.874Z,7.50
2019-04-06T07:06:31.671Z,7.50
2019-04-06T07:09:00.523Z,7.50
2019-04-06T07:11:29.323Z,7.60
2019-04-06T07:13:58.081Z,7.60
2019-04-06T07:16:26.798Z,7.60
2019-04-06T07:18:55.529Z,7.60
2019-04-06T07:21:24.430Z,7.60
2019-04-06T07:23:53.463Z,7.70
2019-04-06T07:26:22.289Z,7.70
2019-04-06T07:28:51.158Z,7.70
2019-04-06T07:31:19.886Z,7.70
2019-04-06T07:33:48.629Z,7.80
2019-04-06T07:36:17.386Z,7.80
2019-04-06T07:38:46.120Z,7.80
2019-04-06T07:41:14.841Z,7.90
2019-04-06T07:43:43.791Z,7.90
2019-04-06T07:46:12.628Z,7.90
2019-04-06T07:48:41.381Z,8.00
2019-04-06T07:51:10.211Z,8.00
2019-04-06T07:53:39.048Z,8.00
2019-04-06T07:56:07.782Z,8.10
2019-04-06T07:58:47.447Z,8.10
2019-04-06T08:01:06.943Z,8.10
2019-04-06T08:03:35.665Z,8.10
2019-04-06T08:06:04.521Z,8.10
2019-04-06T08:08:33.390Z,8.10
2019-04-06T08:11:02.177Z,8.10
2019-04-06T08:13:30.943Z,8.10
2019-04-06T08:15:59.849Z,8.10
2019-04-06T08:18:28.653Z,8.10
2019-04-06T08:20:57.391Z,8.10
2019-04-06T08:23:26.315Z,8.10
2019-04-06T08:25:55.056Z,8.20
2019-04-06T08:28:23.814Z,8.20
2019-04-06T08:30:52.591Z,8.20
2019-04-06T08:33:21.422Z,8.30
2019-04-06T08:35:50.298Z,8.30
2019-04-06T08:38:19.165Z,8.30
2019-04-06T08:40:48.074Z,8.30
2019-04-06T08:43:16.831Z,8.30
2019-04-06T08:45:45.564Z,8.30
2019-04-06T08:48:14.535Z,8.30
2019-04-06T08:50:43.567Z,8.30
2019-04-06T08:53:12.325Z,8.30
2019-04-06T08:55:41.116Z,8.30
2019-04-06T08:58:09.838Z,8.30
2019-04-06T09:00:38.580Z,8.30
2019-04-06T09:03:07.366Z,8.40
2019-04-06T09:05:36.101Z,8.40
2019-04-06T09:08:05.014Z,8.30
2019-04-06T09:10:33.969Z,8.30
2019-04-06T09:13:02.784Z,8.40
2019-04-06T09:15:31.505Z,8.30
2019-04-06T09:18:00.262Z,8.30
2019-04-06T09:20:29.195Z,8.30
2019-04-06T09:22:58.395Z,8.40
2019-04-06T09:25:27.382Z,8.40
2019-04-06T09:27:56.140Z,8.40
2019-04-06T09:30:24.909Z,8.40
2019-04-06T09:32:53.613Z,8.40
2019-04-06T09:35:22.379Z,8.40
2019-04-06T09:37:51.380Z,8.40
2019-04-06T09:40:20.353Z,8.40
2019-04-06T09:42:49.069Z,8.40
2019-04-06T09:45:28.746Z,8.40
2019-04-06T09:47:59.117Z,8.40
2019-04-06T09:50:32.456Z,8.40
2019-04-06T09:53:02.816Z,8.50
2019-04-06T09:55:36.095Z,8.50
2019-04-06T09:58:12.551Z,8.50
2019-04-06T10:00:48.918Z,8.50
2019-04-06T10:03:19.349Z,8.50
2019-04-06T10:05:55.698Z,8.50
2019-04-06T10:08:32.123Z,8.50
2019-04-06T10:11:02.496Z,8.50
2019-04-06T10:13:33.230Z,8.50
2019-04-06T10:16:03.781Z,8.50
2019-04-06T10:18:49.243Z,8.60
2019-04-06T10:21:35.673Z,8.60
2019-04-06T10:24:08.728Z,8.70
2019-04-06T10:26:50.874Z,8.70
2019-04-06T10:29:26.864Z,8.70
2019-04-06T10:32:03.574Z,8.70
2019-04-06T10:34:43.195Z,8.70
2019-04-06T10:37:31.636Z,8.80
2019-04-06T10:40:13.779Z,8.80
2019-04-06T10:42:46.854Z,8.80
2019-04-06T10:45:17.226Z,8.80
2019-04-06T10:47:50.086Z,8.80
2019-04-06T10:50:26.136Z,8.80
2019-04-06T10:52:56.546Z,8.80
2019-04-06T10:55:27.049Z,8.70
2019-04-06T10:58:00.553Z,8.80
2019-04-06T11:00:39.736Z,8.80
2019-04-06T11:03:12.823Z,8.80
2019-04-06T11:06:01.560Z,8.80
2019-04-06T11:08:31.960Z,8.80
2019-04-06T11:11:17.020Z,8.80
2019-04-06T11:13:55.438Z,8.80
2019-04-06T11:16:28.803Z,8.80
2019-04-06T11:19:02.149Z,8.80
2019-04-06T11:21:35.522Z,8.80
2019-04-06T11:24:24.051Z,8.80
2019-04-06T11:27:00.351Z,8.80
2019-04-06T11:29:45.639Z,8.80
2019-04-06T11:32:32.399Z,8.80
2019-04-06T11:35:20.870Z,8.90
2019-04-06T11:37:56.942Z,8.90
2019-04-06T11:40:41.059Z,8.90
2019-04-06T11:43:27.824Z,8.90
2019-04-06T11:46:07.240Z,8.80
2019-04-06T11:48:45.299Z,8.80
2019-04-06T11:51:34.093Z,8.80
2019-04-06T11:54:07.300Z,8.80
2019-04-06T11:56:43.746Z,8.80
2019-04-06T11:59:20.413Z,8.70
2019-04-06T12:01:50.773Z,8.80
2019-04-06T12:04:21.155Z,8.80
2019-04-06T12:06:51.526Z,8.80
2019-04-06T12:09:21.922Z,8.90
2019-04-06T12:11:52.291Z,8.90
2019-04-06T12:14:41.003Z,9.00
2019-04-06T12:17:20.590Z,9.00
2019-04-06T12:19:53.889Z,9.00
2019-04-06T12:22:30.278Z,9.10
2019-04-06T12:25:03.538Z,9.10
2019-04-06T12:27:39.703Z,9.10
2019-04-06T12:30:37.361Z,9.10
2019-04-06T12:33:09.628Z,9.10
2019-04-06T12:35:56.642Z,9.10
2019-04-06T12:38:43.332Z,9.20
2019-04-06T12:41:29.128Z,9.20
2019-04-06T12:44:08.655Z,9.20
2019-04-06T12:46:54.457Z,9.20
2019-04-06T12:49:24.821Z,9.30
2019-04-06T12:52:11.794Z,9.30
2019-04-06T12:54:58.402Z,9.30
2019-04-06T12:57:34.723Z,9.30
2019-04-06T13:00:07.201Z,9.30
2019-04-06T13:02:38.022Z,9.40
2019-04-06T13:05:24.828Z,9.40
2019-04-06T13:07:55.223Z,9.30
2019-04-06T13:10:28.085Z,9.30
2019-04-06T13:13:17.083Z,9.20
2019-04-06T13:15:57.141Z,9.20
2019-04-06T13:18:30.934Z,9.30
2019-04-06T13:21:04.518Z,9.20
2019-04-06T13:23:52.955Z,9.10
2019-04-06T13:26:29.043Z,9.20
2019-04-06T13:29:08.210Z,9.20
2019-04-06T13:31:44.249Z,9.30
2019-04-06T13:34:17.117Z,9.20
2019-04-06T13:37:03.649Z,9.30
2019-04-06T13:39:42.725Z,9.20
2019-04-06T13:42:31.123Z,9.20
2019-04-06T13:45:16.380Z,9.30
2019-04-06T13:47:55.983Z,9.20
2019-04-06T13:50:35.244Z,9.20
2019-04-06T13:53:20.558Z,9.20
2019-04-06T13:55:53.535Z,9.20
2019-04-06T13:58:23.919Z,9.10
2019-04-06T14:00:54.295Z,9.10
2019-04-06T14:03:33.771Z,9.10
2019-04-06T14:06:20.598Z,9.10
2019-04-06T14:08:54.061Z,9.00
2019-04-06T14:11:33.254Z,9.10
2019-04-06T14:14:12.674Z,9.00
2019-04-06T14:16:48.865Z,9.00
2019-04-06T14:19:34.933Z,8.90
2019-04-06T14:22:14.101Z,8.90
2019-04-06T14:24:50.359Z,8.80
2019-04-06T14:27:23.739Z,8.90
2019-04-06T14:29:57.001Z,8.80
2019-04-06T14:32:33.241Z,8.80
2019-04-06T14:35:06.517Z,8.80
2019-04-06T14:37:53.594Z,8.80
2019-04-06T14:40:40.128Z,8.80
2019-04-06T14:43:12.990Z,8.80
2019-04-06T14:45:43.376Z,8.80
2019-04-06T14:48:25.893Z,8.70
2019-04-06T14:51:11.133Z,8.80
2019-04-06T14:53:50.660Z,8.70
2019-04-06T14:56:24.346Z,8.70
2019-04-06T14:59:00.808Z,8.70
2019-04-06T15:01:45.278Z,8.60
2019-04-06T15:04:18.455Z,8.70
2019-04-06T15:06:49.357Z,8.70
2019-04-06T15:09:20.114Z,8.70
2019-04-06T15:12:05.901Z,8.60
2019-04-06T15:14:52.887Z,8.60
2019-04-06T15:17:23.413Z,8.70
2019-04-06T15:20:10.450Z,8.60
2019-04-06T15:22:45.644Z,8.70
2019-04-06T15:25:25.159Z,8.70
2019-04-06T15:28:07.377Z,8.60
2019-04-06T15:30:37.735Z,8.60
2019-04-06T15:33:22.830Z,8.60
2019-04-06T15:35:58.928Z,8.60
2019-04-06T15:38:44.417Z,8.60
2019-04-06T15:41:17.359Z,8.60
2019-04-06T15:43:50.516Z,8.60
2019-04-06T15:46:20.886Z,8.60
2019-04-06T15:48:51.258Z,8.60
2019-04-06T15:51:24.478Z,8.60
2019-04-06T15:54:12.127Z,8.60
2019-04-06T15:56:57.658Z,8.60
2019-04-06T15:59:43.329Z,8.60
2019-04-06T16:02:13.747Z,8.60
2019-04-06T16:04:49.825Z,8.60
2019-04-06T16:07:35.462Z,8.60
2019-04-06T16:10:13.451Z,8.60
2019-04-06T16:12:52.470Z,8.60
2019-04-06T16:15:41.411Z,8.60
2019-04-06T16:18:20.531Z,8.50
2019-04-06T16:20:58.839Z,8.50
2019-04-06T16:23:34.437Z,8.50
2019-04-06T16:26:04.825Z,8.50
2019-04-06T16:28:51.514Z,8.60
2019-04-06T16:31:27.682Z,8.50
2019-04-06T16:33:58.075Z,8.60
2019-04-06T16:36:31.475Z,8.50
2019-04-06T16:39:06.001Z,8.50
2019-04-06T16:41:36.716Z,8.40
2019-04-06T16:44:07.262Z,8.40
2019-04-06T16:46:56.207Z,8.40
2019-04-06T16:49:26.585Z,8.40
2019-04-06T16:51:57.629Z,8.50
2019-04-06T16:54:44.273Z,8.40
2019-04-06T16:57:32.992Z,8.40
2019-04-06T17:00:04.698Z,8.40
2019-04-06T17:02:38.137Z,8.40
2019-04-06T17:05:08.620Z,8.40
2019-04-06T17:07:38.990Z,8.30
2019-04-06T17:10:15.274Z,8.40
2019-04-06T17:13:01.835Z,8.40
2019-04-06T17:15:32.231Z,8.40
2019-04-06T17:18:20.893Z,8.30
2019-04-06T17:20:57.785Z,8.30
2019-04-06T17:23:28.289Z,8.30
2019-04-06T17:25:59.072Z,8.30
2019-04-06T17:28:29.861Z,8.30
2019-04-06T17:31:09.374Z,8.30
2019-04-06T17:33:46.027Z,8.30
2019-04-06T17:36:23.673Z,8.20
2019-04-06T17:39:10.225Z,8.20
2019-04-06T17:41:58.728Z,8.20
2019-04-06T17:44:34.939Z,8.20
2019-04-06T17:47:24.259Z,8.20
2019-04-06T17:50:00.355Z,8.20
2019-04-06T17:52:30.836Z,8.20
2019-04-06T17:55:01.254Z,8.20
2019-04-06T17:57:46.953Z,8.20
2019-04-06T18:00:17.618Z,8.20
2019-04-06T18:02:50.831Z,8.20
2019-04-06T18:05:32.562Z,8.20
2019-04-06T18:08:06.040Z,8.10
2019-04-06T18:10:52.862Z,8.10
2019-04-06T18:13:23.272Z,8.20
2019-04-06T18:15:52.194Z,8.20
2019-04-06T18:18:21.205Z,8.20
2019-04-06T18:20:50.309Z,8.20
2019-04-06T18:23:19.102Z,8.10
2019-04-06T18:25:47.893Z,8.10
2019-04-06T18:28:17.156Z,8.10
2019-04-06T18:30:47.627Z,8.10
2019-04-06T18:33:18.022Z,8.10
2019-04-06T18:35:46.827Z,8.10
2019-04-06T18:38:19.921Z,8.00
2019-04-06T18:40:48.889Z,8.10
2019-04-06T18:43:17.666Z,8.00
2019-04-06T18:45:46.626Z,8.00
2019-04-06T18:48:15.425Z,8.00
2019-04-06T18:50:44.154Z,8.00
2019-04-06T18:53:12.924Z,8.00
2019-04-06T18:55:41.685Z,8.00
2019-04-06T18:58:12.711Z,8.00
2019-04-06T19:00:41.272Z,8.00
2019-04-06T19:03:14.937Z,8.00
2019-04-06T19:05:40.551Z,8.00
2019-04-06T19:08:12.261Z,8.00
2019-04-06T19:10:41.014Z,8.00
2019-04-06T19:13:09.996Z,8.00
2019-04-06T19:15:38.885Z,8.00
2019-04-06T19:18:07.815Z,8.00
2019-04-06T19:20:36.569Z,8.00
2019-04-06T19:23:05.300Z,8.00
2019-04-06T19:25:34.275Z,8.10
2019-04-06T19:28:03.007Z,8.10
2019-04-06T19:30:31.732Z,8.00
2019-04-06T19:33:00.522Z,8.00
2019-04-06T19:35:29.294Z,8.00
2019-04-06T19:37:58.400Z,8.10
2019-04-06T19:40:27.304Z,8.00
2019-04-06T19:42:56.391Z,8.00
2019-04-06T19:45:25.168Z,8.00
2019-04-06T19:47:54.051Z,8.00
2019-04-06T19:50:22.841Z,7.90
2019-04-06T19:52:51.705Z,7.90
2019-04-06T19:55:20.652Z,7.80
2019-04-06T19:57:49.506Z,7.80
2019-04-06T20:00:18.905Z,7.80
2019-04-06T20:02:47.750Z,7.80
2019-04-06T20:05:16.474Z,7.70
2019-04-06T20:07:45.570Z,7.70
2019-04-06T20:10:15.172Z,7.70
2019-04-06T20:12:43.965Z,7.70
2019-04-06T20:15:13.274Z,7.60
2019-04-06T20:17:42.054Z,7.60
2019-04-06T20:20:11.310Z,7.60
2019-04-06T20:22:40.085Z,7.60
2019-04-06T20:25:09.190Z,7.60
2019-04-06T20:27:38.030Z,7.60
2019-04-06T20:30:11.310Z,7.60
2019-04-06T20:32:41.067Z,7.50
2019-04-06T20:35:10.896Z,7.50
2019-04-06T20:37:39.794Z,7.60
2019-04-06T20:40:10.279Z,7.60
2019-04-06T20:42:39.462Z,7.60
2019-04-06T20:45:09.284Z,7.60
2019-04-06T20:47:38.593Z,7.50
2019-04-06T20:50:08.087Z,7.50
2019-04-06T20:52:37.095Z,7.50
2019-04-06T20:55:08.009Z,7.50
2019-04-06T20:57:37.380Z,7.50
2019-04-06T21:00:08.385Z,7.50
2019-04-06T21:02:37.607Z,7.50
2019-04-06T21:05:08.551Z,7.50
2019-04-06T21:07:39.189Z,7.50
2019-04-06T21:10:09.757Z,7.50
2019-04-06T21:12:38.747Z,7.50
2019-04-06T21:15:16.903Z,7.50
2019-04-06T21:17:39.112Z,7.50
2019-04-06T21:20:08.504Z,7.50
2019-04-06T21:22:37.241Z,7.50
2019-04-06T21:25:07.245Z,7.50
2019-04-06T21:27:36.215Z,7.50
2019-04-06T21:30:09.489Z,7.50
2019-04-06T21:32:44.691Z,7.50
2019-04-06T21:35:13.727Z,7.50
2019-04-06T21:37:42.633Z,7.50
2019-04-06T21:40:11.467Z,7.50
2019-04-06T21:42:40.928Z,7.50
2019-04-06T21:45:10.564Z,7.50
2019-04-06T21:47:39.817Z,7.50
2019-04-06T21:50:08.776Z,7.50
2019-04-06T21:52:37.448Z,7.50
2019-04-06T21:55:07.988Z,7.50
2019-04-06T21:57:36.823Z,7.50
2019-04-06T22:00:11.046Z,7.60
2019-04-06T22:02:40.196Z,7.60
2019-04-06T22:05:10.317Z,7.60
2019-04-06T22:07:48.169Z,7.60
2019-04-06T22:10:09.740Z,7.70
2019-04-06T22:12:38.734Z,7.60
2019-04-06T22:15:08.489Z,7.60
2019-04-06T22:17:37.415Z,7.70
2019-04-06T22:20:06.472Z,7.70
2019-04-06T22:22:35.535Z,7.70
2019-04-06T22:25:05.819Z,7.70
2019-04-06T22:27:34.762Z,7.70
2019-04-06T22:30:06.875Z,7.70
2019-04-06T22:32:37.271Z,7.70
2019-04-06T22:35:07.801Z,7.70
2019-04-06T22:37:37.157Z,7.70
2019-04-06T22:40:07.389Z,7.70
2019-04-06T22:42:36.591Z,7.70
2019-04-06T22:45:10.672Z,7.70
2019-04-06T22:47:39.888Z,7.80
2019-04-06T22:50:09.625Z,7.80
2019-04-06T22:52:38.571Z,7.80
2019-04-06T22:55:08.493Z,7.80
2019-04-06T22:57:37.437Z,7.80
2019-04-06T23:00:10.125Z,7.80
2019-04-06T23:02:49.449Z,7.80
2019-04-06T23:05:22.806Z,7.80
2019-04-06T23:07:51.720Z,7.80
2019-04-06T23:10:21.169Z,7.80
2019-04-06T23:12:49.954Z,7.80
2019-04-06T23:15:18.750Z,7.80
2019-04-06T23:17:47.683Z,7.80
2019-04-06T23:20:16.476Z,7.80
2019-04-06T23:22:45.548Z,7.70
2019-04-06T23:25:14.987Z,7.70
2019-04-06T23:27:43.726Z,7.70
2019-04-06T23:30:13.105Z,7.70
2019-04-06T23:32:42.271Z,7.70
2019-04-06T23:35:11.104Z,7.70
2019-04-06T23:37:40.349Z,7.70
2019-04-06T23:40:09.895Z,7.70
2019-04-06T23:42:38.810Z,7.60
2019-04-06T23:45:07.805Z,7.70
2019-04-06T23:47:36.562Z,7.60
2019-04-06T23:50:06.703Z,7.60
2019-04-06T23:52:35.522Z,7.60
2019-04-06T23:55:06.188Z,7.60
2019-04-06T23:57:34.919Z,7.60
